Time;durP1;ratioP1;P1;durP2;ratioP2;P2;SDS_P1;SDS_P2;PMS_P1;PMS_P2;Temp;Humidity;BMP_temperature;BMP_pressure;BME280_temperature;BME280_humidity;BME280_pressure;Samples;Min_cycle;Max_cycle;Signal;HPM_P1;HPM_P2
2021/12/15 00:01:28;;;;;;;53.40;17.92;;;;;;;;;;4956135;28;20047;-71
2021/12/15 00:03:55;;;;;;;57.72;18.55;;;9.40;99.90;;;;;;4936432;29;20090;-71
2021/12/15 00:06:21;;;;;;;54.90;19.02;;;;;;;;;;4936917;29;20051;-71
2021/12/15 00:08:51;;;;;;;51.83;18.48;;;9.80;99.90;;;;;;4955950;28;20039;-71
2021/12/15 00:11:18;;;;;;;46.38;17.33;;;;;;;;;;4955766;28;20456;-71
2021/12/15 00:13:45;;;;;;;47.97;17.40;;;9.60;99.90;;;;;;4953969;28;20043;-71
2021/12/15 00:16:13;;;;;;;61.67;18.52;;;9.60;99.90;;;;;;4939900;28;20098;-71
2021/12/15 00:18:44;;;;;;;46.45;17.40;;;9.60;99.90;;;;;;4954629;28;20043;-71
2021/12/15 00:21:12;;;;;;;51.40;18.02;;;9.50;99.90;;;;;;4955636;28;20047;-71
2021/12/15 00:23:40;;;;;;;45.03;17.67;;;9.60;99.90;;;;;;4954461;28;20097;-71
2021/12/15 00:26:06;;;;;;;63.22;17.25;;;;;;;;;;4939893;28;20122;-71
2021/12/15 00:28:32;;;;;;;50.08;18.27;;;10.00;99.90;;;;;;4939562;28;20499;-71
2021/12/15 00:30:58;;;;;;;46.05;17.38;;;;;;;;;;4954970;28;20054;-71
2021/12/15 00:33:25;;;;;;;51.28;18.83;;;;;;;;;;4954185;28;20127;-71
2021/12/15 00:35:51;;;;;;;48.30;18.00;;;;;;;;;;4955344;28;20114;-71
2021/12/15 00:38:17;;;;;;;48.92;17.05;;;;;;;;;;4938141;28;20043;-71
2021/12/15 00:40:43;;;;;;;49.70;16.35;;;;;;;;;;4936077;29;20054;-71
2021/12/15 00:43:09;;;;;;;58.70;16.48;;;;;;;;;;4937373;29;20766;-71
2021/12/15 00:45:36;;;;;;;52.08;16.33;;;;;;;;;;4935762;29;20083;-71
2021/12/15 00:48:02;;;;;;;59.25;18.23;;;9.70;99.90;;;;;;4920173;29;20075;-71
2021/12/15 00:50:32;;;;;;;45.47;15.65;;;8.90;99.90;;;;;;4936346;29;20178;-71
2021/12/15 00:52:58;;;;;;;47.75;16.83;;;10.30;99.90;;;;;;4951504;29;20050;-71
2021/12/15 00:55:26;;;;;;;52.50;17.23;;;9.60;99.90;;;;;;4939386;28;20066;-71
2021/12/15 00:57:52;;;;;;;47.65;17.08;;;9.60;99.90;;;;;;4939105;28;20043;-72
2021/12/15 01:00:26;;;;;;;62.13;17.42;;;9.00;99.90;;;;;;4954865;28;20488;-71
2021/12/15 01:02:52;;;;;;;52.55;17.30;;;9.80;99.90;;;;;;4938455;29;20040;-71
2021/12/15 01:05:22;;;;;;;54.05;18.67;;;10.60;99.90;;;;;;4954600;28;20484;-71
2021/12/15 01:07:48;;;;;;;45.30;17.05;;;;;;;;;;4954961;28;20455;-71
2021/12/15 01:10:21;;;;;;;62.00;17.17;;;9.70;99.90;;;;;;4955283;28;20129;-71
2021/12/15 01:21:06;;;;;;;77.68;21.63;;;9.00;99.90;;;;;;4948021;28;20351;-71
2021/12/15 01:23:33;;;;;;;62.22;18.60;;;9.60;99.90;;;;;;4935215;29;20082;-71
2021/12/15 01:26:15;;;;;;;53.72;18.02;;;9.70;99.90;;;;;;4936545;29;20046;-71
2021/12/15 01:28:41;;;;;;;49.20;18.17;;;;;;;;;;4935851;29;20043;-71
2021/12/15 01:31:09;;;;;;;58.10;20.33;;;9.80;99.90;;;;;;4939735;29;20046;-71
2021/12/15 01:33:37;;;;;;;53.67;18.92;;;9.80;99.90;;;;;;4954669;28;20047;-71
2021/12/15 01:36:06;;;;;;;68.20;20.30;;;9.90;99.90;;;;;;4952788;28;20043;-71
2021/12/15 01:38:33;;;;;;;57.20;20.88;;;9.60;99.90;;;;;;4938809;28;20157;-71
2021/12/15 01:41:00;;;;;;;57.03;19.80;;;9.10;99.90;;;;;;4950827;28;20036;-71
2021/12/15 01:46:53;;;;;;;70.38;21.75;;;10.50;99.90;;;;;;4935481;29;20071;-71
2021/12/15 01:49:21;;;;;;;66.68;22.00;;;9.80;99.90;;;;;;4935142;29;20152;-71
2021/12/15 01:51:47;;;;;;;57.13;21.10;;;9.90;99.90;;;;;;4935294;29;20520;-71
2021/12/15 01:54:14;;;;;;;63.65;22.15;;;;;;;;;;4935358;29;20404;-71
2021/12/15 01:56:40;;;;;;;61.13;24.20;;;9.80;99.90;;;;;;4936054;29;20396;-72
2021/12/15 01:59:06;;;;;;;66.03;24.60;;;9.60;99.90;;;;;;4934969;29;20047;-71
2021/12/15 02:01:33;;;;;;;65.95;24.67;;;;;;;;;;4926447;29;20047;-71
2021/12/15 02:03:59;;;;;;;78.70;24.13;;;;;;;;;;4954334;28;20484;-71
2021/12/15 02:06:26;;;;;;;78.82;25.05;;;9.30;99.90;;;;;;4920130;29;20054;-71
2021/12/15 02:08:52;;;;;;;73.03;25.73;;;;;;;;;;4934768;29;20098;-71
2021/12/15 02:11:19;;;;;;;76.28;24.67;;;;;;;;;;4940000;28;20502;-71
2021/12/15 02:13:45;;;;;;;62.85;23.33;;;;;;;;;;4953998;28;20043;-71
2021/12/15 02:16:11;;;;;;;60.65;22.95;;;;;;;;;;4954000;28;20043;-71
2021/12/15 02:18:42;;;;;;;65.03;24.20;;;9.70;99.90;;;;;;4952557;28;20074;-71
2021/12/15 02:21:12;;;;;;;64.30;24.33;;;9.40;99.90;;;;;;4950171;28;20468;-71
2021/12/15 02:23:45;;;;;;;65.97;23.38;;;9.70;99.90;;;;;;4934759;29;20048;-71
2021/12/15 02:26:19;;;;;;;61.13;23.35;;;11.20;99.90;;;;;;4935060;29;20083;-71
2021/12/15 02:28:48;;;;;;;71.13;23.15;;;9.80;99.90;;;;;;4935929;28;20086;-71
2021/12/15 02:34:21;;;;;;;60.45;23.67;;;;;;;;;;4939422;29;20051;-71
2021/12/15 02:39:30;;;;;;;60.70;23.58;;;;;;;;;;4952084;28;20047;-71
2021/12/15 02:41:56;;;;;;;70.22;23.20;;;;;;;;;;4938460;29;20050;-71
2021/12/15 02:44:24;;;;;;;64.03;25.02;;;10.10;99.90;;;;;;4941768;28;20087;-71
2021/12/15 02:46:52;;;;;;;64.18;22.98;;;9.60;99.90;;;;;;4942390;29;20035;-71
2021/12/15 02:49:21;;;;;;;66.93;22.92;;;9.80;99.90;;;;;;4946598;28;20047;-71
2021/12/15 02:51:49;;;;;;;62.90;22.42;;;9.70;99.90;;;;;;4938216;29;20051;-71
2021/12/15 02:54:16;;;;;;;74.18;23.98;;;9.70;99.90;;;;;;4938340;29;20127;-72
2021/12/15 02:56:43;;;;;;;60.05;23.45;;;;;;;;;;4937632;29;20532;-71
2021/12/15 02:59:11;;;;;;;67.22;23.63;;;9.70;99.90;;;;;;4938539;29;20357;-72
2021/12/15 03:01:58;;;;;;;63.67;23.35;;;9.80;99.90;;;;;;4940195;28;20043;-72
2021/12/15 03:07:12;;;;;;;52.58;23.80;;;9.70;99.90;;;;;;4957007;28;20039;-72
2021/12/15 03:17:56;;;;;;;59.60;23.48;;;;;;;;;;4953529;28;20051;-71
2021/12/15 03:20:22;;;;;;;66.18;25.80;;;;;;;;;;4939932;28;20100;-71
2021/12/15 03:22:50;;;;;;;70.95;23.85;;;;;;;;;;4940800;29;20043;-72
2021/12/15 03:25:17;;;;;;;66.30;25.70;;;9.50;99.90;;;;;;4956313;28;20523;-72
2021/12/15 03:33:33;;;;;;;56.65;22.00;;;9.60;99.90;;;;;;4956557;28;20093;-71
2021/12/15 03:36:09;;;;;;;63.88;24.58;;;;;;;;;;4956989;28;20070;-72
2021/12/15 03:38:36;;;;;;;56.53;23.30;;;9.50;99.90;;;;;;4957088;28;20118;-72
2021/12/15 03:41:05;;;;;;;61.67;24.15;;;9.50;99.90;;;;;;4954463;28;20054;-71
2021/12/15 03:43:33;;;;;;;59.53;24.23;;;;;;;;;;4956311;29;20074;-71
2021/12/15 03:46:03;;;;;;;64.15;23.60;;;10.40;99.90;;;;;;4949544;28;20141;-71
2021/12/15 03:48:33;;;;;;;59.80;23.67;;;9.60;99.90;;;;;;4937130;29;20040;-71
2021/12/15 03:50:59;;;;;;;56.72;23.73;;;;;;;;;;4938096;29;20054;-71
2021/12/15 03:53:26;;;;;;;67.97;25.55;;;9.30;99.90;;;;;;4937106;29;20142;-71
2021/12/15 03:55:53;;;;;;;72.65;25.27;;;9.60;99.90;;;;;;4941862;28;20550;-71
2021/12/15 03:58:23;;;;;;;68.13;24.20;;;9.40;99.90;;;;;;4956199;28;20098;-71
2021/12/15 04:00:53;;;;;;;63.80;24.35;;;9.40;99.90;;;;;;4955976;28;20047;-71
2021/12/15 04:03:28;;;;;;;58.45;23.92;;;8.90;99.90;;;;;;4940161;28;20079;-71
2021/12/15 04:05:56;;;;;;;62.42;22.88;;;9.70;99.90;;;;;;4942091;28;20122;-71
2021/12/15 04:08:22;;;;;;;67.53;25.10;;;;;;;;;;4955994;28;20123;-71
2021/12/15 04:10:49;;;;;;;68.75;25.17;;;9.40;99.90;;;;;;4956295;28;20039;-71
2021/12/15 04:13:15;;;;;;;64.53;24.10;;;;;;;;;;4942354;29;20039;-71
2021/12/15 04:15:57;;;;;;;60.25;23.02;;;8.90;99.90;;;;;;4939511;29;20126;-71
2021/12/15 04:18:24;;;;;;;60.35;22.45;;;9.60;99.90;;;;;;4955665;28;20510;-71
2021/12/15 04:20:51;;;;;;;59.80;23.08;;;9.40;99.90;;;;;;4939048;29;20047;-72
2021/12/15 04:23:19;;;;;;;59.70;22.63;;;;;;;;;;4953722;28;20098;-72
2021/12/15 04:25:48;;;;;;;62.20;23.13;;;9.20;99.90;;;;;;4952569;28;20046;-72
2021/12/15 04:28:22;;;;;;;63.60;22.75;;;9.60;99.90;;;;;;4936615;29;20039;-72
2021/12/15 04:30:53;;;;;;;61.70;22.85;;;9.50;99.90;;;;;;4936425;29;20039;-72
2021/12/15 04:33:27;;;;;;;56.63;22.70;;;9.30;99.90;;;;;;4937305;29;20051;-72
2021/12/15 04:35:55;;;;;;;60.70;23.23;;;9.10;99.90;;;;;;4940064;29;20047;-72
2021/12/15 04:38:24;;;;;;;60.90;22.77;;;9.50;99.90;;;;;;4955589;28;20043;-72
2021/12/15 04:40:50;;;;;;;68.22;23.15;;;9.60;99.90;;;;;;4955251;28;20087;-73
2021/12/15 04:43:17;;;;;;;61.45;22.45;;;9.60;99.90;;;;;;4953491;28;20051;-71
2021/12/15 04:45:43;;;;;;;61.35;21.83;;;;;;;;;;4952675;28;20079;-71
2021/12/15 04:48:10;;;;;;;58.17;22.30;;;9.60;99.90;;;;;;4938862;28;20046;-71
2021/12/15 04:50:36;;;;;;;54.90;21.48;;;;;;;;;;4946141;29;20046;-71
2021/12/15 04:53:04;;;;;;;59.10;22.15;;;8.90;99.90;;;;;;4927424;29;20134;-71
2021/12/15 04:55:33;;;;;;;65.40;22.15;;;9.60;99.90;;;;;;4935948;29;20141;-71
2021/12/15 04:58:01;;;;;;;58.05;22.15;;;9.50;99.90;;;;;;4955852;28;20073;-71
2021/12/15 05:00:36;;;;;;;62.15;22.08;;;9.50;99.90;;;;;;4939053;29;20566;-71
2021/12/15 05:03:03;;;;;;;64.63;22.35;;;9.00;99.90;;;;;;4953383;29;20039;-71
2021/12/15 05:05:29;;;;;;;62.95;21.73;;;9.40;99.90;;;;;;4954117;28;20039;-71
2021/12/15 05:07:56;;;;;;;56.85;20.63;;;9.50;99.90;;;;;;4935620;29;20076;-72
2021/12/15 05:10:23;;;;;;;59.05;21.67;;;9.40;99.90;;;;;;4935676;29;20048;-72
2021/12/15 05:12:49;;;;;;;55.22;20.95;;;;;;;;;;4922103;29;20135;-72
2021/12/15 05:15:16;;;;;;;55.03;20.63;;;9.40;99.90;;;;;;4935693;29;20043;-71
2021/12/15 05:17:43;;;;;;;66.13;22.60;;;;;;;;;;4935738;29;20050;-72
2021/12/15 05:20:09;;;;;;;52.75;19.63;;;;;;;;;;4935607;29;20130;-72
2021/12/15 05:22:36;;;;;;;52.00;20.98;;;9.50;99.90;;;;;;4936655;29;20047;-72
2021/12/15 05:25:04;;;;;;;53.65;20.10;;;9.50;99.90;;;;;;4935412;29;20039;-71
2021/12/15 05:27:30;;;;;;;59.28;20.20;;;;;;;;;;4950589;29;20491;-71
2021/12/15 05:29:57;;;;;;;55.42;20.33;;;;;;;;;;4954715;28;20042;-71
2021/12/15 05:32:23;;;;;;;56.88;21.13;;;9.60;99.90;;;;;;4953014;28;20499;-71
2021/12/15 05:34:51;;;;;;;53.10;20.50;;;9.70;99.90;;;;;;4955616;28;20050;-72
2021/12/15 05:37:21;;;;;;;56.60;20.52;;;9.50;99.90;;;;;;4940588;28;20136;-71
2021/12/15 05:39:49;;;;;;;54.42;19.55;;;9.30;99.90;;;;;;4935206;29;20090;-71
2021/12/15 05:42:15;;;;;;;50.83;18.70;;;9.30;99.90;;;;;;4935582;29;20504;-71
2021/12/15 05:44:42;;;;;;;51.63;18.08;;;;;;;;;;4935256;29;20110;-72
2021/12/15 05:47:08;;;;;;;57.78;18.02;;;9.30;99.90;;;;;;4946992;28;20575;-71
2021/12/15 05:49:34;;;;;;;47.10;18.65;;;10.40;99.90;;;;;;4954208;28;20115;-71
2021/12/15 05:52:01;;;;;;;48.42;17.95;;;;;;;;;;4938174;29;20082;-71
2021/12/15 05:54:27;;;;;;;49.33;18.30;;;;;;;;;;4952111;28;20055;-71
2021/12/15 05:56:53;;;;;;;46.13;18.40;;;9.50;99.90;;;;;;4944424;28;20077;-71
2021/12/15 05:59:20;;;;;;;53.97;18.38;;;;;;;;;;4919394;29;20559;-71
2021/12/15 06:01:46;;;;;;;47.50;18.30;;;;;;;;;;4935069;29;20369;-71
2021/12/15 06:04:13;;;;;;;50.83;19.42;;;;;;;;;;4935964;29;20040;-71
2021/12/15 06:06:39;;;;;;;52.42;18.83;;;;;;;;;;4927189;29;20473;-71
2021/12/15 06:09:07;;;;;;;57.30;19.77;;;9.60;99.90;;;;;;4954059;28;20583;-71
2021/12/15 06:11:34;;;;;;;48.55;18.15;;;9.50;99.90;;;;;;4953972;28;20074;-71
2021/12/15 06:14:00;;;;;;;57.58;19.23;;;8.90;99.90;;;;;;4952499;28;20047;-71
2021/12/15 06:16:26;;;;;;;55.47;19.35;;;10.30;99.90;;;;;;4947961;28;20110;-71
2021/12/15 06:18:53;;;;;;;45.75;18.67;;;8.80;99.90;;;;;;4923042;29;20130;-71
2021/12/15 06:21:20;;;;;;;42.17;18.70;;;9.60;99.90;;;;;;4923249;29;20536;-71
2021/12/15 06:23:47;;;;;;;47.05;18.67;;;9.40;99.90;;;;;;4923249;29;20035;-71
2021/12/15 06:26:13;;;;;;;48.35;18.85;;;;;;;;;;4939963;29;20042;-71
2021/12/15 06:28:39;;;;;;;51.50;17.08;;;8.90;99.90;;;;;;4938672;29;20070;-71
2021/12/15 06:31:08;;;;;;;52.65;18.73;;;9.60;99.90;;;;;;4942359;29;20070;-71
2021/12/15 06:33:38;;;;;;;45.63;17.38;;;9.50;99.90;;;;;;4957674;28;20043;-71
2021/12/15 06:36:05;;;;;;;42.40;17.08;;;;;;;;;;4940565;28;20125;-71
2021/12/15 06:38:35;;;;;;;56.78;17.00;;;9.40;99.90;;;;;;4957820;28;20510;-71
2021/12/15 06:41:02;;;;;;;44.92;17.52;;;9.50;99.90;;;;;;4954889;28;20143;-71
2021/12/15 06:43:28;;;;;;;57.03;18.40;;;;;;;;;;4938426;29;20047;-71
2021/12/15 06:46:19;;;;;;;50.67;17.00;;;10.30;99.90;;;;;;4938878;29;20062;-71
2021/12/15 06:59:39;;;;;;;46.42;16.40;;;10.20;99.90;;;;;;4943947;28;20105;-71
2021/12/15 07:02:05;;;;;;;44.83;16.80;;;9.80;99.90;;;;;;4945944;28;20496;-71
2021/12/15 07:04:31;;;;;;;38.05;14.48;;;;;;;;;;4951275;28;20122;-71
2021/12/15 07:06:57;;;;;;;40.88;16.30;;;;;;;;;;4939874;28;20357;-71
2021/12/15 07:09:23;;;;;;;49.20;16.33;;;9.70;99.90;;;;;;4957356;28;20043;-71
2021/12/15 07:11:51;;;;;;;37.88;14.35;;;9.70;99.90;;;;;;4946226;28;20106;-71
2021/12/15 07:14:19;;;;;;;33.85;13.45;;;9.80;99.90;;;;;;4936735;29;20131;-71
2021/12/15 07:16:48;;;;;;;33.42;13.60;;;9.70;99.90;;;;;;4923145;29;20043;-71
2021/12/15 07:24:51;;;;;;;39.20;11.68;;;;;;;;;;4898000;29;20140;-71
2021/12/15 07:27:17;;;;;;;33.08;12.18;;;;;;;;;;4901158;29;20540;-71
2021/12/15 07:29:43;;;;;;;37.25;12.23;;;;;;;;;;4901113;29;20135;-71
2021/12/15 07:32:09;;;;;;;27.73;11.20;;;;;;;;;;4937461;29;20415;-71
2021/12/15 07:34:36;;;;;;;31.38;11.30;;;;;;;;;;4937162;29;20094;-71
2021/12/15 07:37:01;;;;;;;30.42;11.77;;;9.40;99.90;;;;;;4921799;29;20511;-71
2021/12/15 07:39:28;;;;;;;26.95;9.65;;;;;;;;;;4931522;29;20134;-71
2021/12/15 07:42:04;;;;;;;26.45;9.35;;;;;;;;;;4938338;29;20044;-72
2021/12/15 07:44:30;;;;;;;27.25;10.38;;;10.10;99.90;;;;;;4921987;29;20063;-72
2021/12/15 07:46:56;;;;;;;20.00;9.65;;;;;;;;;;4937526;29;20040;-72
2021/12/15 07:49:24;;;;;;;22.70;9.68;;;9.50;99.90;;;;;;4937441;29;20499;-72
2021/12/15 07:51:59;;;;;;;31.90;10.02;;;;;;;;;;4929705;29;20050;-73
2021/12/15 07:54:26;;;;;;;24.15;9.30;;;;;;;;;;4954567;28;20511;-73
2021/12/15 07:56:52;;;;;;;27.77;9.02;;;;;;;;;;4956486;28;20822;-73
2021/12/15 07:59:18;;;;;;;25.05;8.23;;;;;;;;;;4955931;28;20483;-73
2021/12/15 08:01:44;;;;;;;23.08;8.27;;;;;;;;;;4937848;29;20051;-73
2021/12/15 08:04:10;;;;;;;24.00;9.63;;;;;;;;;;4938180;28;20043;-72
2021/12/15 08:06:36;;;;;;;26.88;8.18;;;;;;;;;;4936947;29;20046;-72
2021/12/15 08:09:04;;;;;;;24.63;7.60;;;9.60;99.90;;;;;;4936923;29;20488;-72
2021/12/15 08:11:30;;;;;;;20.48;8.80;;;10.30;99.90;;;;;;4936748;29;20079;-73
2021/12/15 08:13:57;;;;;;;25.27;8.77;;;;;;;;;;4953799;28;20043;-72
2021/12/15 08:16:25;;;;;;;27.45;7.50;;;9.70;99.90;;;;;;4924580;28;20459;-72
2021/12/15 08:18:50;;;;;;;22.05;8.48;;;10.30;99.90;;;;;;4956020;28;20074;-72
2021/12/15 08:21:16;;;;;;;27.67;8.85;;;;;;;;;;4955684;28;20079;-72
2021/12/15 08:23:42;;;;;;;21.92;9.05;;;9.50;99.90;;;;;;4939752;29;20043;-72
2021/12/15 08:26:09;;;;;;;26.65;8.40;;;10.30;99.90;;;;;;4936561;29;20503;-72
2021/12/15 08:28:36;;;;;;;28.13;8.73;;;9.70;99.90;;;;;;4936369;29;20044;-71
2021/12/15 08:31:04;;;;;;;23.23;7.07;;;9.50;99.90;;;;;;4936796;29;20044;-71
2021/12/15 08:33:30;;;;;;;29.40;9.05;;;;;;;;;;4949986;28;20051;-72
2021/12/15 08:36:07;;;;;;;19.08;7.78;;;10.30;99.90;;;;;;4939486;29;20046;-72
2021/12/15 08:38:35;;;;;;;24.45;8.68;;;9.90;99.90;;;;;;4939503;28;20114;-73
2021/12/15 08:41:16;;;;;;;25.05;8.18;;;9.40;99.90;;;;;;4954479;28;20051;-73
2021/12/15 08:43:43;;;;;;;26.17;8.48;;;;;;;;;;4939806;29;20035;-72
2021/12/15 08:46:13;;;;;;;29.20;8.75;;;8.90;99.90;;;;;;4936011;29;20055;-72
2021/12/15 08:48:40;;;;;;;25.95;9.27;;;8.90;99.90;;;;;;4946351;28;20121;-73
2021/12/15 08:51:11;;;;;;;32.47;9.75;;;9.60;99.90;;;;;;4936598;29;20044;-73
2021/12/15 08:53:38;;;;;;;30.70;9.70;;;9.40;99.90;;;;;;4944564;28;20484;-73
2021/12/15 08:56:05;;;;;;;30.52;10.07;;;10.20;99.90;;;;;;4947254;28;20056;-73
2021/12/15 08:58:31;;;;;;;27.80;10.73;;;;;;;;;;4938768;29;20050;-73
2021/12/15 09:00:58;;;;;;;33.45;10.38;;;9.80;99.90;;;;;;4944725;28;20052;-73
2021/12/15 09:03:25;;;;;;;29.45;11.05;;;9.50;99.90;;;;;;4938139;29;20039;-73
2021/12/15 09:05:53;;;;;;;31.90;11.27;;;10.10;99.90;;;;;;4936773;29;20540;-72
2021/12/15 09:08:22;;;;;;;32.33;12.02;;;9.60;99.90;;;;;;4944446;29;20365;-72
2021/12/15 09:10:49;;;;;;;31.92;12.82;;;10.40;99.90;;;;;;4944652;28;20515;-72
2021/12/15 09:13:15;;;;;;;39.85;11.70;;;8.70;99.90;;;;;;4952753;28;20043;-73
2021/12/15 09:15:42;;;;;;;31.52;11.85;;;9.60;99.90;;;;;;4935685;29;20043;-73
2021/12/15 09:18:10;;;;;;;25.90;11.88;;;9.80;99.90;;;;;;4919661;29;20048;-73
2021/12/15 09:20:37;;;;;;;30.65;12.82;;;9.60;99.90;;;;;;4937948;29;20122;-73
2021/12/15 09:23:08;;;;;;;32.22;12.18;;;10.40;99.90;;;;;;4923368;28;20051;-73
2021/12/15 09:25:34;;;;;;;25.60;11.38;;;9.30;99.90;;;;;;4954516;28;20166;-73
2021/12/15 09:28:00;;;;;;;35.22;11.68;;;10.40;99.90;;;;;;4938899;29;20369;-73
2021/12/15 09:30:29;;;;;;;31.45;11.57;;;10.30;99.90;;;;;;4954408;28;20035;-73
2021/12/15 09:32:55;;;;;;;26.75;11.20;;;;;;;;;;4954604;28;20133;-72
2021/12/15 09:35:23;;;;;;;28.48;11.52;;;9.60;99.90;;;;;;4938141;29;20039;-73
2021/12/15 09:37:49;;;;;;;23.10;10.30;;;;;;;;;;4937156;29;20174;-73
2021/12/15 09:40:17;;;;;;;31.45;9.80;;;9.40;99.90;;;;;;4935229;29;20036;-73
2021/12/15 09:42:44;;;;;;;23.13;9.63;;;9.60;99.90;;;;;;4949174;29;20106;-72
2021/12/15 09:45:39;;;;;;;18.40;8.48;;;9.70;99.90;;;;;;4939199;29;20203;-72
2021/12/15 10:04:43;;;;;;;11.13;5.85;;;;;;;;;;4952614;28;20087;-72
2021/12/15 10:17:53;;;;;;;17.75;6.55;;;9.90;99.90;;;;;;4947103;28;20098;-72
2021/12/15 10:20:25;;;;;;;16.55;6.00;;;9.90;99.90;;;;;;4953785;28;20085;-72
2021/12/15 10:22:55;;;;;;;18.63;6.23;;;9.80;99.90;;;;;;4934772;29;20043;-72
2021/12/15 10:25:29;;;;;;;17.15;6.97;;;9.80;99.90;;;;;;4935558;29;20331;-73
2021/12/15 10:28:08;;;;;;;18.60;6.10;;;9.80;99.90;;;;;;4953878;28;20131;-72
2021/12/15 10:30:52;;;;;;;14.27;6.05;;;10.80;99.90;;;;;;4946935;28;20117;-72
2021/12/15 10:33:19;;;;;;;16.63;6.07;;;;;;;;;;4937489;29;20556;-72
2021/12/15 10:35:52;;;;;;;16.88;6.47;;;10.10;99.90;;;;;;4937554;29;20121;-72
2021/12/15 10:38:29;;;;;;;16.30;5.80;;;9.90;99.90;;;;;;4952455;28;20058;-72
2021/12/15 10:41:03;;;;;;;13.85;5.82;;;10.00;99.90;;;;;;4951940;28;20051;-72
2021/12/15 10:43:31;;;;;;;11.93;5.20;;;;;;;;;;4953928;28;20114;-72
2021/12/15 10:46:05;;;;;;;14.45;6.18;;;9.80;99.90;;;;;;4953219;28;20107;-72
2021/12/15 10:48:36;;;;;;;18.42;6.05;;;;;;;;;;4951138;28;20048;-72
2021/12/15 10:51:39;;;;;;;16.60;5.53;;;9.90;99.90;;;;;;4919753;29;20044;-72
2021/12/15 10:54:12;;;;;;;20.10;5.20;;;9.80;99.90;;;;;;4929944;29;20187;-72
2021/12/15 10:56:41;;;;;;;11.93;4.97;;;;;;;;;;4923883;29;20435;-72
2021/12/15 10:59:13;;;;;;;16.52;5.22;;;10.80;99.90;;;;;;4943167;29;20119;-72
2021/12/15 11:01:41;;;;;;;;;;;10.10;99.90;;;;;;4936265;29;20054;-73
2021/12/15 11:04:23;;;;;;;16.67;5.80;;;10.00;99.90;;;;;;4937198;29;19918;-73
2021/12/15 11:07:30;;;;;;;18.98;4.68;;;10.00;99.90;;;;;;4944023;28;20053;-72
2021/12/15 11:09:56;;;;;;;18.45;5.47;;;;;;;;;;4903889;29;20040;-72
2021/12/15 11:12:22;;;;;;;18.33;5.47;;;;;;;;;;4902583;29;20176;-72
2021/12/15 11:14:51;;;;;;;14.55;4.72;;;10.10;99.90;;;;;;4917249;29;20094;-73
2021/12/15 11:17:17;;;;;;;15.32;5.00;;;;;;;;;;4938272;28;20058;-72
2021/12/15 11:19:55;;;;;;;15.23;5.03;;;10.10;99.90;;;;;;4952576;28;20050;-72
2021/12/15 11:22:47;;;;;;;23.25;5.55;;;9.30;99.90;;;;;;4956932;28;20075;-72
2021/12/15 11:25:31;;;;;;;12.52;4.45;;;;;;;;;;4938007;29;20110;-72
2021/12/15 11:27:57;;;;;;;18.73;4.38;;;;;;;;;;4939000;29;20044;-72
2021/12/15 11:30:34;;;;;;;16.75;4.30;;;9.50;99.90;;;;;;4956974;28;20035;-72
2021/12/15 11:33:07;;;;;;;16.13;3.88;;;10.20;99.90;;;;;;4941231;29;20118;-72
2021/12/15 11:35:41;;;;;;;11.38;3.83;;;10.20;99.90;;;;;;4936699;29;20099;-72
2021/12/15 11:38:13;;;;;;;14.40;4.32;;;10.10;99.90;;;;;;4937577;28;20051;-72
2021/12/15 11:40:44;;;;;;;;;;;10.40;99.90;;;;;;4937991;29;20088;-72
2021/12/15 11:43:27;;;;;;;14.73;3.55;;;10.10;99.90;;;;;;4937522;29;19926;-72
2021/12/15 11:45:54;;;;;;;9.85;3.45;;;10.70;99.90;;;;;;4939570;28;20060;-73
2021/12/15 11:48:24;;;;;;;13.85;3.83;;;10.20;99.90;;;;;;4957660;28;20046;-73
2021/12/15 11:50:53;;;;;;;8.75;3.20;;;10.20;99.90;;;;;;4956384;28;20178;-72
2021/12/15 11:53:42;;;;;;;13.20;2.95;;;10.40;99.90;;;;;;4956584;28;20500;-73
2021/12/15 11:56:10;;;;;;;16.50;2.90;;;10.20;99.90;;;;;;4951387;28;20115;-73
2021/12/15 11:58:37;;;;;;;10.10;2.90;;;;;;;;;;4937291;29;20103;-73
2021/12/15 12:01:03;;;;;;;8.63;2.88;;;10.90;99.90;;;;;;4940484;28;20043;-73
2021/12/15 12:03:29;;;;;;;7.32;2.80;;;;;;;;;;4937027;29;20048;-73
2021/12/15 12:05:56;;;;;;;8.40;2.72;;;;;;;;;;4945462;29;20039;-73
2021/12/15 12:08:23;;;;;;;12.63;3.00;;;;;;;;;;4954347;28;20403;-73
2021/12/15 12:10:51;;;;;;;9.50;2.90;;;10.20;99.90;;;;;;4954911;28;20554;-73
2021/12/15 12:13:23;;;;;;;6.82;2.90;;;;;;;;;;4956076;29;20047;-73
2021/12/15 12:15:57;;;;;;;9.07;2.95;;;10.60;99.90;;;;;;4948362;28;20484;-73
2021/12/15 12:18:25;;;;;;;13.13;3.42;;;11.20;99.90;;;;;;4936882;29;20102;-73
2021/12/15 12:20:58;;;;;;;7.07;3.20;;;10.40;99.90;;;;;;4935814;29;20139;-72
2021/12/15 12:23:27;;;;;;;8.27;3.90;;;10.30;99.90;;;;;;4935433;29;20131;-73
2021/12/15 12:26:01;;;;;;;8.45;2.58;;;10.70;99.90;;;;;;4936810;29;20040;-73
2021/12/15 12:28:31;;;;;;;8.02;2.47;;;10.10;99.90;;;;;;4935715;29;20043;-73
2021/12/15 12:31:01;;;;;;;7.10;2.53;;;9.10;99.90;;;;;;4936403;29;20051;-73
2021/12/15 12:33:28;;;;;;;7.22;2.53;;;10.20;99.90;;;;;;4942124;29;20035;-73
2021/12/15 12:36:01;;;;;;;6.97;2.72;;;10.30;99.90;;;;;;4955460;28;20051;-73
2021/12/15 12:38:29;;;;;;;10.98;3.00;;;10.30;99.90;;;;;;4938248;29;20043;-73
2021/12/15 12:41:18;;;;;;;6.75;2.63;;;10.50;99.90;;;;;;4945486;28;20419;-72
2021/12/15 12:43:48;;;;;;;8.52;2.67;;;10.10;99.90;;;;;;4941722;28;20053;-73
2021/12/15 12:46:54;;;;;;;9.43;2.88;;;11.00;99.90;;;;;;4954315;28;20059;-73
2021/12/15 13:01:10;;;;;;;7.13;2.65;;;10.70;99.90;;;;;;4955133;28;20093;-72
2021/12/15 13:03:52;;;;;;;9.48;2.45;;;10.60;99.90;;;;;;4955198;28;20039;-72
2021/12/15 13:06:21;;;;;;;10.65;2.65;;;10.10;99.90;;;;;;4939355;29;20043;-72
2021/12/15 13:08:47;;;;;;;6.90;2.33;;;;;;;;;;4954977;28;20055;-72
2021/12/15 13:11:18;;;;;;;5.88;2.72;;;10.20;99.90;;;;;;4953850;28;20054;-72
2021/12/15 13:13:58;;;;;;;10.88;3.10;;;9.70;99.90;;;;;;4935684;29;20062;-72
2021/12/15 13:16:26;;;;;;;11.55;3.45;;;10.30;99.90;;;;;;4935643;29;20044;-72
2021/12/15 13:18:57;;;;;;;8.30;2.63;;;10.20;99.90;;;;;;4935693;29;20054;-72
2021/12/15 13:21:54;;;;;;;3.42;2.30;;;10.40;99.90;;;;;;4920041;29;20043;-72
2021/12/15 13:30:42;;;;;;;5.63;2.05;;;10.60;99.90;;;;;;4935439;29;20063;-72
2021/12/15 13:33:16;;;;;;;11.55;2.75;;;10.10;99.90;;;;;;4934684;29;20506;-72
2021/12/15 13:35:48;;;;;;;12.02;2.70;;;10.70;99.90;;;;;;4934641;29;20043;-72
2021/12/15 13:38:28;;;;;;;4.57;2.42;;;10.20;99.90;;;;;;4935290;29;20496;-72
2021/12/15 13:41:07;;;;;;;5.75;2.20;;;10.00;99.90;;;;;;4935291;29;20047;-72
2021/12/15 13:43:43;;;;;;;5.28;2.15;;;10.30;99.90;;;;;;4934598;29;20404;-72
2021/12/15 13:46:27;;;;;;;6.28;2.58;;;9.80;99.90;;;;;;4919055;29;20059;-72
2021/12/15 13:49:04;;;;;;;7.95;1.90;;;10.00;99.90;;;;;;4919499;29;20488;-72
2021/12/15 13:51:53;;;;;;;7.32;2.35;;;9.50;99.90;;;;;;4935167;29;20516;-73
2021/12/15 13:54:43;;;;;;;7.85;2.40;;;10.20;99.90;;;;;;4935099;29;20054;-75
2021/12/15 13:57:18;;;;;;;8.57;2.40;;;10.30;99.90;;;;;;4934933;29;20043;-72
2021/12/15 13:59:44;;;;;;;5.65;2.83;;;;;;;;;;4919197;29;20048;-72
2021/12/15 14:02:20;;;;;;;6.57;2.55;;;10.10;99.90;;;;;;4919305;29;20058;-72
2021/12/15 14:04:46;;;;;;;9.05;2.35;;;;;;;;;;4919334;29;20512;-72
2021/12/15 14:07:30;;;;;;;10.05;2.47;;;10.30;99.90;;;;;;4918367;29;20039;-73
2021/12/15 14:10:10;;;;;;;8.90;2.65;;;9.90;99.90;;;;;;4934993;29;20040;-72
2021/12/15 14:12:45;;;;;;;5.50;2.47;;;10.50;99.90;;;;;;4935039;29;20052;-72
2021/12/15 14:15:34;;;;;;;7.00;2.30;;;10.10;99.90;;;;;;4941714;28;20047;-72
2021/12/15 14:18:12;;;;;;;11.43;3.08;;;10.90;99.90;;;;;;4938013;28;20127;-73
2021/12/15 14:20:45;;;;;;;9.27;2.78;;;10.90;99.90;;;;;;4935097;29;20376;-70
2021/12/15 14:23:17;;;;;;;8.63;2.45;;;10.30;99.90;;;;;;4957728;28;20115;-72
2021/12/15 14:25:43;;;;;;;7.00;2.30;;;;;;;;;;4940699;29;20048;-72
2021/12/15 14:28:09;;;;;;;9.25;2.60;;;;;;;;;;4919529;29;20044;-72
2021/12/15 14:30:36;;;;;;;7.32;2.55;;;10.80;99.90;;;;;;4953797;28;20506;-72
2021/12/15 14:33:03;;;;;;;6.70;2.28;;;9.20;99.90;;;;;;4934570;29;20101;-72
2021/12/15 14:35:29;;;;;;;8.65;2.20;;;;;;;;;;4918946;29;20127;-73
2021/12/15 14:37:55;;;;;;;8.70;2.22;;;9.10;99.90;;;;;;4935742;29;20043;-72
2021/12/15 14:40:22;;;;;;;6.20;1.88;;;;;;;;;;4938335;29;20556;-73
2021/12/15 14:42:48;;;;;;;10.73;2.15;;;;;;;;;;4927770;29;20191;-71
2021/12/15 14:45:15;;;;;;;8.93;2.55;;;10.00;99.90;;;;;;4944681;29;20511;-72
2021/12/15 14:47:43;;;;;;;7.05;1.83;;;10.80;99.90;;;;;;4941394;29;20401;-72
2021/12/15 14:50:15;;;;;;;6.82;1.80;;;9.70;99.90;;;;;;4922688;29;20039;-72
2021/12/15 14:52:53;;;;;;;6.78;1.83;;;10.00;99.90;;;;;;4943003;28;20058;-72
2021/12/15 14:55:21;;;;;;;5.75;2.00;;;9.80;99.90;;;;;;4964298;28;20086;-72
2021/12/15 14:57:47;;;;;;;4.40;2.13;;;;;;;;;;4936598;29;20056;-76
2021/12/15 15:00:19;;;;;;;5.30;1.90;;;9.10;99.90;;;;;;4945103;29;20063;-72